Time;durP1;ratioP1;P1;durP2;ratioP2;P2;SDS_P1;SDS_P2;PMS_P1;PMS_P2;Temp;Humidity;BMP_temperature;BMP_pressure;BME280_temperature;BME280_humidity;BME280_pressure;Samples;Min_cycle;Max_cycle;Signal;HPM_P1;HPM_P2
2023/08/28 00:00:59;;;;;;;1.75;0.90;;;19.70;76.10;;;;;;2515329;54;20928;-72
2023/08/28 00:03:26;;;;;;;1.77;0.98;;;19.70;75.90;;;;;;2282733;55;21004;-72
2023/08/28 00:05:55;;;;;;;2.28;1.00;;;19.70;76.00;;;;;;2278044;55;20966;-73
2023/08/28 00:08:24;;;;;;;1.80;0.85;;;19.70;76.00;;;;;;2281900;55;21409;-71
2023/08/28 00:10:55;;;;;;;2.10;1.00;;;19.70;75.90;;;;;;2515157;54;20971;-71
2023/08/28 00:13:21;;;;;;;2.03;0.80;;;19.70;75.60;;;;;;2515721;55;21036;-72
2023/08/28 00:15:48;;;;;;;3.35;0.95;;;19.70;75.60;;;;;;2281892;55;21023;-72
2023/08/28 00:18:15;;;;;;;2.20;1.00;;;19.50;75.40;;;;;;2282782;56;21437;-71
2023/08/28 00:20:42;;;;;;;1.90;0.80;;;19.60;75.40;;;;;;2515247;54;20946;-71
2023/08/28 00:23:08;;;;;;;2.05;0.80;;;19.60;75.40;;;;;;2515807;54;21560;-72
2023/08/28 00:25:34;;;;;;;3.35;0.80;;;19.60;75.50;;;;;;2282144;56;21740;-72
2023/08/28 00:28:01;;;;;;;2.78;0.90;;;19.60;75.60;;;;;;2515121;54;21487;-73
2023/08/28 00:30:28;;;;;;;1.50;0.60;;;19.50;75.60;;;;;;2281964;55;21095;-72
2023/08/28 00:32:54;;;;;;;2.28;0.90;;;19.50;75.50;;;;;;2515236;54;20921;-72
2023/08/28 00:35:21;;;;;;;2.83;1.00;;;19.50;75.60;;;;;;2282778;55;21547;-72
2023/08/28 00:37:48;;;;;;;1.45;0.65;;;19.50;75.60;;;;;;2512730;54;21024;-70
2023/08/28 00:40:16;;;;;;;2.72;0.95;;;19.50;75.70;;;;;;2514751;54;20984;-72
2023/08/28 00:42:42;;;;;;;1.87;0.80;;;19.50;75.80;;;;;;2514105;54;21063;-71
2023/08/28 00:45:09;;;;;;;1.77;0.80;;;19.50;75.90;;;;;;2510939;54;20917;-73
2023/08/28 00:47:36;;;;;;;2.92;0.98;;;19.50;75.90;;;;;;2282150;55;21008;-73
2023/08/28 00:50:04;;;;;;;1.52;0.70;;;19.50;75.90;;;;;;2510122;55;20947;-71
2023/08/28 00:52:31;;;;;;;2.30;0.85;;;19.50;75.90;;;;;;2514745;54;20959;-71
2023/08/28 00:54:57;;;;;;;1.90;0.80;;;19.50;75.90;;;;;;2515083;54;21000;-72
2023/08/28 00:57:27;;;;;;;2.22;0.90;;;19.40;75.80;;;;;;2514904;54;20988;-71
2023/08/28 00:59:53;;;;;;;2.22;0.65;;;19.50;76.00;;;;;;2514458;54;21031;-72
2023/08/28 01:02:19;;;;;;;1.90;0.70;;;19.50;76.10;;;;;;2514733;54;21036;-72
2023/08/28 01:04:46;;;;;;;2.65;0.85;;;19.40;76.00;;;;;;2515005;54;20931;-71
2023/08/28 01:07:25;;;;;;;1.58;0.75;;;19.40;75.90;;;;;;2514855;54;20948;-71
2023/08/28 01:10:09;;;;;;;1.58;0.62;;;19.40;75.50;;;;;;2515325;54;21067;-72
2023/08/28 01:13:59;;;;;;;1.73;0.82;;;19.40;75.40;;;;;;2282529;55;21054;-71
2023/08/28 01:16:26;;;;;;;3.67;0.80;;;19.40;74.70;;;;;;2514560;55;20984;-70
2023/08/28 01:19:05;;;;;;;1.65;0.73;;;19.40;75.70;;;;;;2515849;54;21789;-71
2023/08/28 01:21:31;;;;;;;1.80;0.65;;;19.40;75.70;;;;;;2515078;54;21063;-72
2023/08/28 01:23:59;;;;;;;1.95;0.80;;;19.40;75.80;;;;;;2514357;54;21782;-72
2023/08/28 01:26:25;;;;;;;1.90;0.88;;;19.30;75.80;;;;;;2515170;54;21405;-71
2023/08/28 01:28:51;;;;;;;1.75;0.80;;;19.30;75.80;;;;;;2281480;55;20963;-72
2023/08/28 01:31:18;;;;;;;1.48;0.62;;;19.30;75.80;;;;;;2515302;54;21808;-73
2023/08/28 01:33:45;;;;;;;2.53;0.80;;;19.30;75.90;;;;;;2282000;55;21623;-71
2023/08/28 01:36:30;;;;;;;2.20;0.80;;;19.30;75.80;;;;;;2515882;54;21754;-72
2023/08/28 01:39:04;;;;;;;1.87;0.90;;;19.30;75.50;;;;;;2512337;54;20959;-71
2023/08/28 01:41:33;;;;;;;1.98;0.80;;;19.30;75.80;;;;;;2485765;54;20987;-72
2023/08/28 01:44:01;;;;;;;3.12;0.98;;;19.30;75.90;;;;;;2515216;54;20952;-71
2023/08/28 01:46:32;;;;;;;1.75;0.82;;;19.10;75.70;;;;;;2282953;55;20952;-72
2023/08/28 01:48:58;;;;;;;1.65;0.65;;;19.30;75.90;;;;;;2514908;54;21068;-71
2023/08/28 01:51:25;;;;;;;2.30;0.85;;;19.30;76.00;;;;;;2282185;55;20995;-72
2023/08/28 01:53:52;;;;;;;1.08;0.60;;;19.30;76.00;;;;;;2276166;56;21017;-72
2023/08/28 01:56:25;;;;;;;2.00;0.82;;;19.30;76.10;;;;;;2491779;55;21395;-72
2023/08/28 01:58:55;;;;;;;1.50;0.70;;;19.30;75.90;;;;;;2514650;54;21011;-72
2023/08/28 02:01:24;;;;;;;1.73;0.73;;;19.30;76.00;;;;;;2282373;56;20995;-72
2023/08/28 02:03:51;;;;;;;1.33;0.50;;;19.30;76.10;;;;;;2513900;54;21441;-71
2023/08/28 02:06:17;;;;;;;1.25;0.50;;;19.30;76.10;;;;;;2254791;56;20935;-72
2023/08/28 02:08:47;;;;;;;1.27;0.50;;;19.30;76.20;;;;;;2515064;55;21489;-71
2023/08/28 02:11:17;;;;;;;1.95;0.70;;;19.30;76.10;;;;;;2509946;54;20968;-72
2023/08/28 02:13:43;;;;;;;3.17;0.82;;;19.30;76.10;;;;;;2515186;54;20992;-73
2023/08/28 02:16:10;;;;;;;1.80;0.62;;;19.30;76.10;;;;;;2484211;55;21001;-71
2023/08/28 02:18:37;;;;;;;1.75;0.75;;;19.30;76.20;;;;;;2256967;56;21014;-71
2023/08/28 02:21:04;;;;;;;1.23;0.50;;;19.30;76.20;;;;;;2484234;55;21048;-73
2023/08/28 02:23:32;;;;;;;1.12;0.47;;;19.30;76.20;;;;;;2483582;55;20959;-72
2023/08/28 02:25:59;;;;;;;2.40;0.60;;;19.30;76.10;;;;;;2483805;55;21038;-72
2023/08/28 02:28:25;;;;;;;2.22;0.70;;;19.30;76.10;;;;;;2484392;55;21025;-72
2023/08/28 02:30:51;;;;;;;1.70;0.52;;;19.30;76.10;;;;;;2483090;55;20958;-73
2023/08/28 02:33:19;;;;;;;2.20;0.70;;;19.30;76.10;;;;;;2483704;55;21005;-72
2023/08/28 02:35:45;;;;;;;2.15;0.70;;;19.30;75.90;;;;;;2256042;56;21724;-72
2023/08/28 02:38:14;;;;;;;2.35;0.62;;;19.20;75.80;;;;;;2484121;55;20992;-73
2023/08/28 02:40:45;;;;;;;2.78;1.10;;;19.20;75.80;;;;;;2508666;54;20953;-71
2023/08/28 02:43:13;;;;;;;3.15;0.80;;;19.20;75.90;;;;;;2471347;55;21526;-72
2023/08/28 02:45:40;;;;;;;1.30;0.60;;;19.20;76.00;;;;;;2258568;56;21020;-71
2023/08/28 02:48:08;;;;;;;4.37;0.85;;;19.20;76.10;;;;;;2505234;55;21357;-72
2023/08/28 02:50:35;;;;;;;2.00;0.60;;;19.20;76.10;;;;;;2515367;54;20964;-70
2023/08/28 02:53:03;;;;;;;2.00;0.50;;;19.20;76.00;;;;;;2282507;55;20963;-71
2023/08/28 02:55:39;;;;;;;1.55;0.52;;;19.20;76.00;;;;;;2515642;54;21031;-72
2023/08/28 02:58:05;;;;;;;2.35;0.60;;;19.20;75.50;;;;;;2282871;56;21049;-72
2023/08/28 03:00:33;;;;;;;2.33;0.88;;;19.20;75.90;;;;;;2515929;54;21599;-72
2023/08/28 03:03:00;;;;;;;1.85;0.60;;;19.20;75.90;;;;;;2282754;56;21558;-73
2023/08/28 03:05:27;;;;;;;2.20;0.60;;;19.20;75.90;;;;;;2515812;54;20956;-72
2023/08/28 03:07:54;;;;;;;1.37;0.60;;;19.20;75.80;;;;;;2514693;54;20988;-72
2023/08/28 03:10:20;;;;;;;1.10;0.50;;;19.10;75.70;;;;;;2282840;56;21763;-71
2023/08/28 03:12:46;;;;;;;2.83;0.70;;;19.10;75.60;;;;;;2282800;56;21492;-72
2023/08/28 03:15:13;;;;;;;1.80;0.80;;;19.10;75.60;;;;;;2487275;55;20935;-71
2023/08/28 03:17:39;;;;;;;3.15;0.70;;;19.10;75.70;;;;;;2479884;55;20946;-72
2023/08/28 03:20:09;;;;;;;3.00;0.77;;;19.10;75.70;;;;;;2257215;56;21245;-72
2023/08/28 03:22:36;;;;;;;1.52;0.50;;;19.10;75.70;;;;;;2263334;56;20950;-71
2023/08/28 03:25:04;;;;;;;1.30;0.60;;;19.10;75.70;;;;;;2484460;55;21518;-70
2023/08/28 03:27:34;;;;;;;1.42;0.70;;;19.10;75.70;;;;;;2484178;55;21554;-72
2023/08/28 03:30:01;;;;;;;1.90;0.70;;;19.10;75.70;;;;;;2485105;55;20986;-72
2023/08/28 03:32:27;;;;;;;1.87;0.70;;;19.10;75.80;;;;;;2484666;55;21008;-72
2023/08/28 03:34:56;;;;;;;1.92;0.70;;;19.00;75.70;;;;;;2484027;55;20967;-72
2023/08/28 03:37:26;;;;;;;3.12;0.60;;;19.10;75.70;;;;;;2491548;55;20993;-71
2023/08/28 03:39:52;;;;;;;1.30;0.68;;;19.00;75.70;;;;;;2257463;56;21440;-71
2023/08/28 03:42:19;;;;;;;1.30;0.60;;;19.00;75.80;;;;;;2486664;55;20953;-72
2023/08/28 03:44:45;;;;;;;1.45;0.60;;;19.00;75.80;;;;;;2485627;55;21564;-72
2023/08/28 03:47:12;;;;;;;1.73;0.70;;;19.00;75.80;;;;;;2257399;56;20954;-72
2023/08/28 03:49:39;;;;;;;2.00;0.68;;;19.00;75.80;;;;;;2254449;56;20953;-71
2023/08/28 03:52:06;;;;;;;1.23;0.60;;;19.00;75.80;;;;;;2258275;56;20905;-71
2023/08/28 03:54:34;;;;;;;1.10;0.52;;;19.00;75.80;;;;;;2258580;56;21500;-71
2023/08/28 03:57:00;;;;;;;1.60;0.70;;;18.90;75.60;;;;;;2474717;55;21045;-71
2023/08/28 03:59:27;;;;;;;1.60;0.60;;;19.00;75.80;;;;;;2240038;56;20987;-72
2023/08/28 04:01:54;;;;;;;1.52;0.60;;;19.00;75.80;;;;;;2265370;56;21101;-71
2023/08/28 04:04:20;;;;;;;2.15;0.90;;;18.90;75.60;;;;;;2476874;55;20945;-73
2023/08/28 04:06:48;;;;;;;1.45;0.70;;;18.90;75.70;;;;;;2479546;55;21010;-71
2023/08/28 04:09:17;;;;;;;3.33;0.90;;;18.90;75.70;;;;;;2257424;56;21086;-72
2023/08/28 04:11:45;;;;;;;1.73;0.77;;;18.90;75.70;;;;;;2490413;55;21808;-70
2023/08/28 04:14:12;;;;;;;2.50;0.80;;;18.90;75.70;;;;;;2485226;55;21003;-71
2023/08/28 04:16:38;;;;;;;2.80;0.88;;;18.90;76.60;;;;;;2256834;56;21042;-71
2023/08/28 04:19:04;;;;;;;1.52;0.77;;;18.90;75.80;;;;;;2256302;56;21270;-71
2023/08/28 04:21:31;;;;;;;2.15;0.75;;;18.90;75.90;;;;;;2484564;55;21303;-71
2023/08/28 04:23:58;;;;;;;2.12;0.80;;;18.90;75.90;;;;;;2256707;56;21001;-72
2023/08/28 04:26:24;;;;;;;2.20;0.80;;;18.90;75.90;;;;;;2484537;55;20958;-71
2023/08/28 04:28:50;;;;;;;2.90;0.80;;;18.90;76.10;;;;;;2458968;55;21088;-72
2023/08/28 04:31:17;;;;;;;2.03;0.85;;;18.90;76.10;;;;;;2249950;56;21030;-72
2023/08/28 04:33:47;;;;;;;3.47;1.17;;;18.90;76.10;;;;;;2483313;55;21101;-71
2023/08/28 04:36:13;;;;;;;1.17;0.57;;;18.90;76.10;;;;;;2484534;55;20995;-71
2023/08/28 04:38:39;;;;;;;1.98;0.95;;;18.90;76.10;;;;;;2258863;56;21057;-73
2023/08/28 04:41:06;;;;;;;1.70;0.70;;;18.90;76.10;;;;;;2475849;55;22011;-72
2023/08/28 04:43:32;;;;;;;1.37;0.65;;;18.90;76.10;;;;;;2483754;55;21768;-73
2023/08/28 04:45:59;;;;;;;1.52;0.60;;;18.90;75.90;;;;;;2484324;55;20982;-72
2023/08/28 04:48:26;;;;;;;1.85;0.80;;;18.90;75.80;;;;;;2484600;55;21046;-72
2023/08/28 04:50:52;;;;;;;1.45;0.70;;;18.90;75.80;;;;;;2484663;55;20962;-72
2023/08/28 04:53:19;;;;;;;1.48;0.60;;;18.90;75.80;;;;;;2484794;55;21073;-71
2023/08/28 04:55:49;;;;;;;2.20;1.00;;;18.80;75.80;;;;;;2484556;55;20951;-72
2023/08/28 04:58:15;;;;;;;2.47;0.88;;;18.80;75.90;;;;;;2256973;56;20973;-73
2023/08/28 05:00:43;;;;;;;3.67;0.80;;;18.90;76.10;;;;;;2490040;55;21010;-70
2023/08/28 05:03:12;;;;;;;1.65;0.90;;;18.90;76.20;;;;;;2484303;55;21428;-72
2023/08/28 05:05:40;;;;;;;5.53;1.12;;;18.90;76.30;;;;;;2483856;55;21148;-71
2023/08/28 05:08:06;;;;;;;1.75;0.93;;;18.90;76.30;;;;;;2484128;55;21022;-73
2023/08/28 05:10:33;;;;;;;1.90;0.75;;;18.90;76.40;;;;;;2256820;56;20959;-71
2023/08/28 05:12:59;;;;;;;2.92;0.70;;;18.90;76.40;;;;;;2483277;55;21097;-73
2023/08/28 05:15:26;;;;;;;2.33;0.80;;;18.90;76.40;;;;;;2484364;55;20978;-72
2023/08/28 05:17:53;;;;;;;2.30;0.98;;;18.90;76.40;;;;;;2483859;55;21026;-71
2023/08/28 05:20:22;;;;;;;3.17;0.90;;;18.90;76.30;;;;;;2484467;55;21546;-72
2023/08/28 05:22:48;;;;;;;2.55;0.60;;;18.90;76.30;;;;;;2514999;54;21042;-72
2023/08/28 05:25:15;;;;;;;4.15;0.80;;;18.90;76.30;;;;;;2492353;54;20925;-70
2023/08/28 05:27:41;;;;;;;1.30;0.60;;;18.90;76.30;;;;;;2272639;56;20943;-73
2023/08/28 05:30:08;;;;;;;3.53;0.80;;;18.90;76.20;;;;;;2282088;56;21500;-71
2023/08/28 05:32:36;;;;;;;1.70;0.80;;;18.90;76.20;;;;;;2281853;56;20947;-72
2023/08/28 05:35:04;;;;;;;2.08;0.70;;;18.90;76.20;;;;;;2281321;56;20927;-73
2023/08/28 05:37:30;;;;;;;1.58;0.70;;;18.90;76.20;;;;;;2515195;54;21374;-72
2023/08/28 05:39:57;;;;;;;2.22;0.77;;;18.90;76.10;;;;;;2281309;55;20952;-71
2023/08/28 05:42:24;;;;;;;3.42;0.77;;;18.90;76.10;;;;;;2515508;54;20999;-70
2023/08/28 05:44:52;;;;;;;1.55;0.60;;;18.90;76.10;;;;;;2278635;55;21024;-71
2023/08/28 05:47:19;;;;;;;2.47;0.73;;;18.90;76.10;;;;;;2257126;56;21047;-71
2023/08/28 05:49:46;;;;;;;1.75;0.75;;;18.90;76.10;;;;;;2482314;55;20953;-72
2023/08/28 05:52:12;;;;;;;2.42;0.90;;;18.90;76.10;;;;;;2460230;55;21065;-71
2023/08/28 05:54:39;;;;;;;2.03;0.70;;;18.90;76.10;;;;;;2259698;56;21392;-72
2023/08/28 05:57:06;;;;;;;1.45;0.60;;;18.90;76.10;;;;;;2521354;55;20982;-72
2023/08/28 05:59:33;;;;;;;1.87;0.70;;;18.90;76.10;;;;;;2521525;55;20987;-72
2023/08/28 06:01:59;;;;;;;1.90;0.93;;;18.90;76.00;;;;;;2521085;55;20958;-71
2023/08/28 06:04:25;;;;;;;3.33;0.70;;;18.90;76.00;;;;;;2291151;55;21011;-72
2023/08/28 06:06:53;;;;;;;1.52;0.60;;;18.90;76.00;;;;;;2515143;55;20966;-71
2023/08/28 06:09:19;;;;;;;1.80;0.70;;;18.90;76.00;;;;;;2285562;55;20991;-72
2023/08/28 06:11:45;;;;;;;1.40;0.70;;;18.90;76.00;;;;;;2520763;55;21090;-71
2023/08/28 06:14:14;;;;;;;1.65;0.70;;;18.90;76.00;;;;;;2521705;55;20958;-72
2023/08/28 06:16:42;;;;;;;2.35;0.70;;;18.90;75.90;;;;;;2289013;55;21521;-72
2023/08/28 06:19:08;;;;;;;3.55;0.70;;;18.90;76.10;;;;;;2284907;55;21443;-73
2023/08/28 06:21:35;;;;;;;1.55;0.75;;;18.90;76.10;;;;;;2287479;55;21014;-71
2023/08/28 06:24:01;;;;;;;3.37;0.82;;;18.90;76.10;;;;;;2521055;55;21014;-73
2023/08/28 06:26:27;;;;;;;2.53;0.90;;;18.90;76.10;;;;;;2521759;55;20958;-71
2023/08/28 06:28:54;;;;;;;3.00;1.40;;;18.90;76.10;;;;;;2286437;56;20954;-71
2023/08/28 06:31:23;;;;;;;1.95;0.93;;;18.90;76.10;;;;;;2521185;55;20903;-72
2023/08/28 06:33:49;;;;;;;2.17;1.17;;;18.90;76.00;;;;;;2286925;56;21074;-72
2023/08/28 06:36:25;;;;;;;4.37;0.90;;;18.90;76.10;;;;;;2286517;56;20962;-72
2023/08/28 06:38:52;;;;;;;1.55;0.80;;;18.90;75.80;;;;;;2521130;55;21030;-71
2023/08/28 06:41:19;;;;;;;3.80;1.00;;;18.90;76.20;;;;;;2287014;55;21715;-71
2023/08/28 06:43:46;;;;;;;1.85;0.90;;;18.90;76.10;;;;;;2520719;55;21408;-71
2023/08/28 06:46:15;;;;;;;3.22;1.10;;;18.90;76.10;;;;;;2287555;55;21029;-72
2023/08/28 06:48:44;;;;;;;2.47;0.93;;;18.90;76.10;;;;;;2287492;56;20982;-73
2023/08/28 06:51:13;;;;;;;2.08;0.90;;;18.90;76.10;;;;;;2519104;55;20980;-71
2023/08/28 06:53:40;;;;;;;2.30;1.00;;;18.90;76.10;;;;;;2517501;54;21685;-71
2023/08/28 06:56:06;;;;;;;2.20;0.93;;;18.90;76.20;;;;;;2520063;55;21032;-72
2023/08/28 06:58:33;;;;;;;2.05;1.00;;;18.90;76.10;;;;;;2521511;55;20982;-70
2023/08/28 07:00:59;;;;;;;3.58;1.23;;;18.90;76.10;;;;;;2521417;55;20955;-73
2023/08/28 07:03:28;;;;;;;2.75;1.10;;;18.90;76.10;;;;;;2522290;55;21058;-71
2023/08/28 07:05:55;;;;;;;3.47;1.30;;;18.90;76.00;;;;;;2514204;55;20990;-72
2023/08/28 07:08:23;;;;;;;2.55;0.98;;;18.90;76.10;;;;;;2520700;55;21042;-71
2023/08/28 07:10:51;;;;;;;2.65;1.25;;;18.90;76.30;;;;;;2286936;55;20942;-71
2023/08/28 07:13:17;;;;;;;3.67;1.15;;;18.90;76.50;;;;;;2522028;55;20958;-71
2023/08/28 07:15:53;;;;;;;4.45;1.45;;;18.90;76.50;;;;;;2286857;55;20989;-73
2023/08/28 07:18:19;;;;;;;3.87;1.70;;;18.90;76.10;;;;;;2521549;55;21055;-73
2023/08/28 07:20:45;;;;;;;3.15;1.70;;;18.90;76.40;;;;;;2520975;55;20994;-71
2023/08/28 07:23:12;;;;;;;3.55;1.90;;;18.90;76.50;;;;;;2287930;55;20978;-72
2023/08/28 07:25:38;;;;;;;4.95;1.85;;;18.90;76.60;;;;;;2287797;55;20967;-71
2023/08/28 07:28:09;;;;;;;3.58;2.33;;;18.90;76.60;;;;;;2521454;55;21002;-72
2023/08/28 07:30:36;;;;;;;4.68;2.40;;;18.90;76.70;;;;;;2287435;56;21002;-72
2023/08/28 07:33:03;;;;;;;2.97;1.83;;;18.90;76.70;;;;;;2521555;55;20950;-71
2023/08/28 07:35:34;;;;;;;5.45;2.12;;;18.90;76.70;;;;;;2521649;55;20954;-72
2023/08/28 07:38:05;;;;;;;3.20;1.85;;;18.90;76.60;;;;;;2520491;55;21005;-72
2023/08/28 07:40:32;;;;;;;2.78;1.90;;;19.00;76.50;;;;;;2521203;55;20966;-71
2023/08/28 07:43:01;;;;;;;3.40;2.00;;;19.00;76.50;;;;;;2521554;55;20942;-72
2023/08/28 07:45:28;;;;;;;3.87;2.00;;;19.00;76.30;;;;;;2521267;55;21751;-71
2023/08/28 07:47:59;;;;;;;2.50;1.50;;;19.00;76.40;;;;;;2521286;55;20970;-72
2023/08/28 07:50:28;;;;;;;4.25;1.55;;;19.00;76.30;;;;;;2516367;54;20960;-72
2023/08/28 07:52:58;;;;;;;3.37;1.52;;;19.00;76.50;;;;;;2521286;55;21002;-71
2023/08/28 07:55:24;;;;;;;2.70;1.37;;;19.00;76.30;;;;;;2521619;55;21658;-72
2023/08/28 07:57:52;;;;;;;3.00;1.50;;;19.00;76.30;;;;;;2520950;55;20982;-71
2023/08/28 08:00:21;;;;;;;2.58;1.20;;;19.00;76.40;;;;;;2521523;55;21041;-72
2023/08/28 08:02:49;;;;;;;2.75;1.35;;;19.00;76.30;;;;;;2521143;55;21421;-71
2023/08/28 08:05:16;;;;;;;3.90;1.40;;;19.00;76.30;;;;;;2289348;56;20995;-72
2023/08/28 08:07:42;;;;;;;3.25;1.37;;;19.00;76.30;;;;;;2283817;55;21875;-72
2023/08/28 08:10:10;;;;;;;4.82;1.40;;;19.00;76.40;;;;;;2521307;55;20967;-71
2023/08/28 08:12:37;;;;;;;2.72;1.15;;;19.00;76.40;;;;;;2520703;55;20942;-72
2023/08/28 08:15:04;;;;;;;2.33;0.90;;;19.00;76.40;;;;;;2521994;55;21013;-72
2023/08/28 08:17:33;;;;;;;2.33;1.10;;;19.00;76.50;;;;;;2490792;55;21422;-72
2023/08/28 08:19:59;;;;;;;2.25;1.05;;;19.00;77.20;;;;;;2521596;55;21022;-71
2023/08/28 08:22:26;;;;;;;2.53;1.00;;;19.00;76.40;;;;;;2521685;55;20935;-72
2023/08/28 08:24:52;;;;;;;2.47;1.10;;;19.10;76.60;;;;;;2286941;56;20921;-71
2023/08/28 08:27:19;;;;;;;2.70;1.20;;;19.10;76.60;;;;;;2521886;55;20958;-72
2023/08/28 08:29:45;;;;;;;3.40;1.23;;;19.10;76.50;;;;;;2520892;55;21062;-72
2023/08/28 08:32:12;;;;;;;2.25;1.00;;;19.10;76.40;;;;;;2521819;55;20950;-72
2023/08/28 08:34:38;;;;;;;3.47;1.30;;;19.10;76.40;;;;;;2286657;55;20974;-70
2023/08/28 08:37:04;;;;;;;2.37;1.30;;;19.10;76.30;;;;;;2521600;55;20947;-71
2023/08/28 08:39:31;;;;;;;2.80;1.35;;;19.10;76.40;;;;;;2287162;55;20943;-73
2023/08/28 08:41:57;;;;;;;2.80;1.33;;;19.10;76.30;;;;;;2287102;55;21366;-72
2023/08/28 08:44:24;;;;;;;2.40;1.20;;;19.10;76.20;;;;;;2287601;55;20962;-72
2023/08/28 08:46:50;;;;;;;2.37;1.27;;;19.10;76.30;;;;;;2286516;55;21010;-71
2023/08/28 08:49:19;;;;;;;3.42;1.65;;;19.10;76.20;;;;;;2509085;54;21567;-70
2023/08/28 08:51:45;;;;;;;2.53;1.17;;;19.10;76.10;;;;;;2271963;55;20975;-72
2023/08/28 08:54:19;;;;;;;2.83;1.33;;;19.10;76.20;;;;;;2517333;54;20990;-71
2023/08/28 08:56:45;;;;;;;3.00;1.77;;;19.10;75.90;;;;;;2521100;55;20914;-71
2023/08/28 08:59:12;;;;;;;3.00;1.35;;;19.10;76.10;;;;;;2521645;55;20942;-73
2023/08/28 09:01:38;;;;;;;2.83;1.30;;;19.10;76.00;;;;;;2287660;55;20926;-71
2023/08/28 09:04:06;;;;;;;2.53;1.27;;;19.10;76.10;;;;;;2265132;56;20966;-72
2023/08/28 09:06:33;;;;;;;3.05;1.50;;;19.00;76.10;;;;;;2521177;55;21055;-71
2023/08/28 09:09:00;;;;;;;2.17;1.20;;;19.10;76.40;;;;;;2504272;55;20979;-71
2023/08/28 09:11:27;;;;;;;3.75;1.67;;;19.10;76.50;;;;;;2272300;56;21018;-72
2023/08/28 09:13:54;;;;;;;3.20;1.33;;;19.10;76.50;;;;;;2520811;55;20927;-73
2023/08/28 09:16:20;;;;;;;2.83;1.50;;;19.10;76.50;;;;;;2289431;55;21115;-72
2023/08/28 09:18:47;;;;;;;2.92;1.65;;;19.10;76.50;;;;;;2283290;55;20974;-72
2023/08/28 09:21:13;;;;;;;3.22;1.75;;;19.10;76.60;;;;;;2517726;54;20972;-71
2023/08/28 09:23:46;;;;;;;3.87;1.90;;;19.10;76.70;;;;;;2285859;56;20966;-71
2023/08/28 09:26:21;;;;;;;3.20;2.10;;;19.10;76.50;;;;;;2516003;55;20978;-72
2023/08/28 09:29:00;;;;;;;3.80;1.80;;;19.20;76.60;;;;;;2521311;54;21397;-72
2023/08/28 09:31:36;;;;;;;3.97;2.40;;;19.20;77.10;;;;;;2520963;55;20978;-73
2023/08/28 09:34:03;;;;;;;3.85;2.30;;;19.20;76.60;;;;;;2521349;55;20994;-71
2023/08/28 09:36:36;;;;;;;3.37;2.35;;;19.20;76.80;;;;;;2521052;55;21054;-72
2023/08/28 09:39:04;;;;;;;4.12;2.30;;;19.20;77.00;;;;;;2290321;55;21051;-71
2023/08/28 09:41:47;;;;;;;4.28;2.20;;;19.20;77.00;;;;;;2517794;54;21421;-71
2023/08/28 09:44:17;;;;;;;3.95;2.20;;;19.30;76.80;;;;;;2521563;55;20942;-71
2023/08/28 09:46:45;;;;;;;3.92;2.65;;;19.30;77.20;;;;;;2263922;56;21026;-72
2023/08/28 09:49:15;;;;;;;3.47;2.40;;;19.30;77.30;;;;;;2287194;55;21014;-72
2023/08/28 09:51:45;;;;;;;4.68;2.45;;;19.30;77.20;;;;;;2256398;56;21880;-72
2023/08/28 09:54:13;;;;;;;3.62;2.58;;;19.40;77.20;;;;;;2504619;54;21008;-71
2023/08/28 09:56:39;;;;;;;4.47;2.83;;;19.40;77.20;;;;;;2516661;54;21416;-70
2023/08/28 09:59:09;;;;;;;4.20;2.45;;;19.40;77.40;;;;;;2287263;55;21902;-71
2023/08/28 10:01:36;;;;;;;3.50;2.35;;;19.50;77.50;;;;;;2513315;54;20947;-72
2023/08/28 10:04:05;;;;;;;4.03;2.20;;;19.50;77.60;;;;;;2286752;55;20959;-70
2023/08/28 10:06:34;;;;;;;3.17;2.12;;;19.50;77.70;;;;;;2521203;55;20955;-71
2023/08/28 10:09:01;;;;;;;3.55;2.47;;;19.50;77.80;;;;;;2521298;55;21474;-72
2023/08/28 10:11:36;;;;;;;4.47;2.58;;;19.60;78.10;;;;;;2265185;55;20938;-72
2023/08/28 10:14:04;;;;;;;5.45;2.60;;;19.60;78.00;;;;;;2521382;55;20935;-71
2023/08/28 10:16:40;;;;;;;4.68;2.50;;;19.70;78.20;;;;;;2521566;55;20994;-73
2023/08/28 10:20:42;;;;;;;3.10;2.08;;;19.70;77.60;;;;;;2521759;55;21413;-72
2023/08/28 10:23:09;;;;;;;3.87;1.92;;;19.80;78.50;;;;;;2521751;55;21003;-71
2023/08/28 10:25:35;;;;;;;3.65;2.25;;;19.90;78.00;;;;;;2521096;55;20949;-73
2023/08/28 10:28:03;;;;;;;3.08;1.83;;;19.90;77.70;;;;;;2521433;55;20943;-72
2023/08/28 10:30:30;;;;;;;3.60;1.87;;;19.90;77.60;;;;;;2521198;55;20973;-71
2023/08/28 10:32:56;;;;;;;3.28;2.08;;;20.00;77.50;;;;;;2520665;55;20974;-72
2023/08/28 10:35:22;;;;;;;2.87;1.75;;;20.00;77.50;;;;;;2287514;56;20994;-71
2023/08/28 10:37:51;;;;;;;3.53;1.98;;;20.00;77.30;;;;;;2520721;55;21790;-71
2023/08/28 10:40:18;;;;;;;3.97;1.98;;;20.00;77.30;;;;;;2286948;55;21005;-72
2023/08/28 10:42:45;;;;;;;3.37;1.87;;;20.00;77.20;;;;;;2520554;55;20954;-73
2023/08/28 10:45:11;;;;;;;3.10;1.80;;;20.10;77.30;;;;;;2287687;55;20966;-72
2023/08/28 10:47:39;;;;;;;3.92;2.05;;;20.10;77.30;;;;;;2520366;55;21005;-72
2023/08/28 10:50:06;;;;;;;3.60;2.20;;;20.10;77.20;;;;;;2286937;55;21045;-73
2023/08/28 10:52:33;;;;;;;3.22;1.90;;;20.10;77.30;;;;;;2520660;55;20954;-70
2023/08/28 10:55:05;;;;;;;2.97;1.90;;;20.20;77.40;;;;;;2285573;55;20946;-72
2023/08/28 10:57:54;;;;;;;3.17;1.90;;;20.20;77.20;;;;;;2289619;56;20972;-71
2023/08/28 11:00:22;;;;;;;3.03;1.73;;;20.20;76.60;;;;;;2518904;55;21455;-71
2023/08/28 11:04:43;;;;;;;3.22;1.80;;;20.30;77.50;;;;;;2518154;54;20956;-72
2023/08/28 11:07:44;;;;;;;2.78;1.83;;;20.30;76.10;;;;;;2520713;55;20954;-71
2023/08/28 11:10:20;;;;;;;2.60;1.40;;;20.40;76.00;;;;;;2521352;55;20962;-70
2023/08/28 11:13:00;;;;;;;4.47;1.85;;;20.40;76.70;;;;;;2520769;55;20939;-70
2023/08/28 11:15:31;;;;;;;3.60;2.15;;;20.40;76.60;;;;;;2287005;55;20931;-70
2023/08/28 11:18:23;;;;;;;2.95;1.62;;;20.40;76.80;;;;;;2286560;56;20942;-72
2023/08/28 11:20:58;;;;;;;3.17;1.70;;;20.50;76.30;;;;;;2287191;55;20930;-72
2023/08/28 11:23:45;;;;;;;3.30;2.10;;;20.50;77.00;;;;;;2287510;55;20946;-70
2023/08/28 11:26:44;;;;;;;3.12;1.92;;;20.50;76.10;;;;;;2286912;55;20934;-70
2023/08/28 11:29:26;;;;;;;3.80;1.80;;;20.50;75.80;;;;;;2521434;55;21732;-71
2023/08/28 11:31:53;;;;;;;3.12;1.50;;;20.50;76.10;;;;;;2286751;56;20955;-72
2023/08/28 11:34:19;;;;;;;2.80;1.60;;;20.60;77.00;;;;;;2287377;55;20986;-72
2023/08/28 11:36:46;;;;;;;2.80;1.60;;;20.60;77.00;;;;;;2288454;55;20954;-71
2023/08/28 11:39:24;;;;;;;2.53;1.42;;;20.60;76.80;;;;;;2283774;56;20954;-70
2023/08/28 11:41:52;;;;;;;2.75;1.62;;;20.60;76.10;;;;;;2520465;55;21823;-72
2023/08/28 11:44:21;;;;;;;3.67;2.00;;;20.60;76.90;;;;;;2499439;54;20971;-71
2023/08/28 11:46:49;;;;;;;3.53;1.87;;;20.70;76.80;;;;;;2510387;55;21025;-69
2023/08/28 11:49:16;;;;;;;3.00;1.83;;;20.70;77.00;;;;;;2287076;55;21832;-68
2023/08/28 11:51:43;;;;;;;3.25;1.60;;;20.70;77.00;;;;;;2521234;55;21058;-70
2023/08/28 11:54:10;;;;;;;3.33;2.12;;;20.70;76.90;;;;;;2521827;55;20955;-70
2023/08/28 11:56:38;;;;;;;2.72;1.30;;;20.70;76.90;;;;;;2287046;55;22096;-71
2023/08/28 11:59:04;;;;;;;2.70;1.33;;;20.80;76.90;;;;;;2521786;55;20915;-70
2023/08/28 12:01:31;;;;;;;1.92;1.02;;;20.80;76.80;;;;;;2521842;55;20966;-70
2023/08/28 12:04:04;;;;;;;3.15;1.30;;;20.80;76.70;;;;;;2287057;55;21034;-70
2023/08/28 12:06:36;;;;;;;1.87;0.90;;;20.80;76.40;;;;;;2287085;56;20962;-71
2023/08/28 12:09:04;;;;;;;1.58;0.82;;;20.80;76.20;;;;;;2484115;55;21465;-71
2023/08/28 12:11:31;;;;;;;3.10;1.15;;;20.90;76.70;;;;;;2484513;55;20978;-71
2023/08/28 12:13:57;;;;;;;2.47;1.23;;;20.90;76.60;;;;;;2253731;55;21426;-70
2023/08/28 12:16:25;;;;;;;2.78;1.30;;;20.90;76.60;;;;;;2254025;55;21030;-70
2023/08/28 12:18:53;;;;;;;2.28;1.15;;;20.90;76.60;;;;;;2512327;55;20974;-70
2023/08/28 12:21:34;;;;;;;2.53;1.10;;;20.90;76.50;;;;;;2499040;55;20979;-71
2023/08/28 12:24:00;;;;;;;3.03;0.95;;;20.90;75.80;;;;;;2490727;55;20954;-68
2023/08/28 12:26:26;;;;;;;2.20;1.20;;;20.90;76.60;;;;;;2261704;56;21106;-71
2023/08/28 12:28:53;;;;;;;2.47;1.10;;;20.90;76.50;;;;;;2470363;55;21042;-71
2023/08/28 12:31:30;;;;;;;2.05;1.00;;;20.90;76.30;;;;;;2477923;54;20931;-71
2023/08/28 12:33:57;;;;;;;2.15;1.20;;;21.00;75.40;;;;;;2515163;54;21456;-71
2023/08/28 12:38:15;;;;;;;2.03;1.17;;;21.00;76.20;;;;;;2282082;55;20956;-70
2023/08/28 12:40:44;;;;;;;3.97;0.85;;;21.00;74.50;;;;;;2281472;56;21023;-70
2023/08/28 12:43:13;;;;;;;3.05;1.30;;;21.00;75.90;;;;;;2515558;54;20991;-69
2023/08/28 12:45:42;;;;;;;2.10;0.95;;;21.00;75.90;;;;;;2281984;56;21027;-70
2023/08/28 12:48:08;;;;;;;1.87;1.12;;;21.00;75.80;;;;;;2515085;54;21714;-69
2023/08/28 12:50:36;;;;;;;2.20;0.95;;;20.90;75.60;;;;;;2282052;56;21504;-70
2023/08/28 12:53:04;;;;;;;2.12;1.00;;;20.90;75.40;;;;;;2514846;54;20951;-70
2023/08/28 12:55:30;;;;;;;2.70;1.27;;;20.90;75.50;;;;;;2515268;54;21300;-72
2023/08/28 12:57:57;;;;;;;2.80;1.60;;;20.90;75.50;;;;;;2514361;54;21803;-70
2023/08/28 13:00:24;;;;;;;3.28;1.00;;;20.90;75.40;;;;;;2283250;56;21019;-70